Terminal Aerodrome Forecast
Issued by NWS

Home | Current Version | Previous Version | Graphics & Text | Print | Product List | Glossary On
Versions: 1 2 3 4 5 6 7 8 9 10 11 12 13 14 15 16 17
000
FTUS43 KABR 272327
TAFPIR
TAF
KPIR 272327Z 2800/2824 01010KT P6SM -RA BKN100
     FM280100 VRB04KT P6SM SCT250
     FM280700 VRB04KT 3SM BR SKC
     FM280900 VRB03KT 1SM BR SKC
      TEMPO 2810/2812 1/2SM FG BKN003
     FM281400 VRB05KT P6SM SKC=

USA.gov is the U.S. government's official web portal to all federal, state and local government web resources and services.